Time;durP1;ratioP1;P1;durP2;ratioP2;P2;SDS_P1;SDS_P2;PMS_P1;PMS_P2;Temp;Humidity;BMP_temperature;BMP_pressure;BME280_temperature;BME280_humidity;BME280_pressure;Samples;Min_cycle;Max_cycle;Signal;HPM_P1;HPM_P2
2023/12/21 00:01:08;;;;;;;14.55;8.80;;;7.10;99.90;;;;;;5037597;28;20589;-57
2023/12/21 00:03:34;;;;;;;16.33;8.40;;;7.10;99.90;;;;;;5040110;28;20014;-56
2023/12/21 00:05:59;;;;;;;16.05;8.63;;;7.10;99.90;;;;;;5036992;28;20352;-56
2023/12/21 00:08:25;;;;;;;16.23;8.68;;;7.10;99.90;;;;;;5038682;28;20357;-57
2023/12/21 00:10:51;;;;;;;15.20;7.88;;;7.10;99.90;;;;;;5039143;28;20493;-57
2023/12/21 00:13:17;;;;;;;14.18;7.65;;;7.10;99.90;;;;;;5037813;28;20539;-56
2023/12/21 00:15:43;;;;;;;12.07;7.43;;;7.10;99.90;;;;;;5040320;28;20131;-56
2023/12/21 00:18:08;;;;;;;12.57;6.75;;;7.10;99.90;;;;;;5037589;28;20108;-56
2023/12/21 00:20:34;;;;;;;15.45;7.20;;;7.10;99.90;;;;;;5019607;28;20026;-56
2023/12/21 00:22:59;;;;;;;14.40;6.68;;;7.20;99.90;;;;;;5030384;28;20509;-57
2023/12/21 00:25:25;;;;;;;9.93;6.13;;;7.20;99.90;;;;;;5030471;28;20029;-57
2023/12/21 00:27:51;;;;;;;13.50;6.47;;;7.20;99.90;;;;;;5013192;28;20032;-56
2023/12/21 00:30:16;;;;;;;12.18;6.65;;;7.20;99.90;;;;;;5016940;28;20045;-55
2023/12/21 00:32:42;;;;;;;8.95;5.43;;;7.20;99.90;;;;;;5037492;28;20100;-55
2023/12/21 00:35:08;;;;;;;9.60;5.20;;;7.20;99.90;;;;;;5019328;28;20028;-55
2023/12/21 00:37:36;;;;;;;12.57;5.85;;;7.30;99.90;;;;;;5039618;28;20029;-54
2023/12/21 00:40:03;;;;;;;8.43;5.30;;;7.20;99.90;;;;;;5038049;28;20021;-54
2023/12/21 00:42:34;;;;;;;6.30;4.60;;;7.30;99.90;;;;;;5039536;28;20025;-54
2023/12/21 00:44:59;;;;;;;8.07;5.00;;;7.30;99.90;;;;;;5038157;28;20138;-54
2023/12/21 00:47:25;;;;;;;6.68;4.13;;;7.30;99.90;;;;;;5034582;28;20038;-54
2023/12/21 00:49:51;;;;;;;5.88;4.00;;;7.30;99.90;;;;;;5036971;28;20048;-54
2023/12/21 00:52:16;;;;;;;5.43;3.67;;;7.30;99.90;;;;;;5037300;28;20083;-54
2023/12/21 00:54:42;;;;;;;7.25;4.25;;;7.40;99.90;;;;;;5037217;28;20120;-52
2023/12/21 00:57:08;;;;;;;8.45;4.30;;;7.40;99.90;;;;;;5036950;28;20421;-54
2023/12/21 00:59:34;;;;;;;6.00;4.18;;;7.40;99.90;;;;;;5017584;28;20025;-54
2023/12/21 01:01:59;;;;;;;6.63;3.92;;;7.40;99.90;;;;;;5036732;28;20033;-55
2023/12/21 01:04:25;;;;;;;8.38;3.58;;;7.40;99.90;;;;;;5035216;28;20033;-54
2023/12/21 01:06:50;;;;;;;6.22;4.00;;;7.40;99.90;;;;;;5039552;28;20104;-55
2023/12/21 01:09:16;;;;;;;8.23;3.92;;;7.40;99.90;;;;;;5037680;28;20026;-54
2023/12/21 01:11:42;;;;;;;7.85;3.75;;;7.40;99.90;;;;;;5040991;28;20025;-54
2023/12/21 01:14:07;;;;;;;6.20;3.72;;;7.40;99.90;;;;;;5033269;28;20017;-55
2023/12/21 01:16:33;;;;;;;6.47;3.67;;;7.40;99.90;;;;;;5039254;28;20033;-54
2023/12/21 01:18:58;;;;;;;4.78;3.40;;;7.50;99.90;;;;;;5038949;28;20075;-54
2023/12/21 01:21:24;;;;;;;5.43;3.20;;;7.50;99.90;;;;;;5039248;28;20459;-53
2023/12/21 01:23:50;;;;;;;4.85;2.63;;;7.50;99.90;;;;;;5039928;28;20029;-54
2023/12/21 01:26:16;;;;;;;5.72;2.95;;;7.50;99.90;;;;;;5037158;28;20056;-54
2023/12/21 01:28:41;;;;;;;4.10;2.80;;;7.50;99.90;;;;;;5023269;28;20051;-54
2023/12/21 01:31:08;;;;;;;8.90;2.80;;;7.60;99.90;;;;;;5037445;28;20033;-54
2023/12/21 01:33:34;;;;;;;4.20;2.60;;;7.60;99.90;;;;;;5040313;28;20013;-54
2023/12/21 01:35:59;;;;;;;4.88;3.10;;;7.60;99.90;;;;;;5034319;28;20476;-54
2023/12/21 01:38:25;;;;;;;4.57;2.65;;;7.50;99.90;;;;;;5038869;28;20222;-54
2023/12/21 01:40:50;;;;;;;2.65;2.08;;;7.60;99.90;;;;;;5039255;28;20029;-54
2023/12/21 01:43:16;;;;;;;3.28;2.22;;;7.50;99.90;;;;;;5037969;28;20456;-54
2023/12/21 01:45:42;;;;;;;3.08;2.20;;;7.60;99.90;;;;;;5040582;28;20081;-54
2023/12/21 01:48:09;;;;;;;3.47;2.10;;;7.60;99.90;;;;;;5037948;28;20026;-53
2023/12/21 01:50:35;;;;;;;2.30;1.80;;;7.60;99.90;;;;;;5019953;28;20116;-54
2023/12/21 01:53:03;;;;;;;2.33;1.88;;;7.60;99.90;;;;;;5037705;28;20390;-54
2023/12/21 01:55:30;;;;;;;2.47;1.92;;;7.60;99.90;;;;;;5038946;28;20018;-54
2023/12/21 01:57:57;;;;;;;2.50;1.75;;;7.60;99.90;;;;;;5039846;28;20029;-53
2023/12/21 02:00:22;;;;;;;2.00;1.73;;;7.60;99.90;;;;;;5037318;28;20025;-52
2023/12/21 02:02:50;;;;;;;3.17;1.90;;;7.60;99.90;;;;;;5040752;28;20029;-54
2023/12/21 02:05:15;;;;;;;5.15;2.38;;;7.60;99.90;;;;;;5037585;28;20105;-55
2023/12/21 02:07:41;;;;;;;2.72;1.98;;;7.60;99.90;;;;;;5040785;28;20109;-54
2023/12/21 02:10:07;;;;;;;3.72;2.58;;;7.60;99.90;;;;;;5036953;28;20556;-55
2023/12/21 02:12:32;;;;;;;3.13;2.00;;;7.60;99.90;;;;;;5040121;28;20041;-54
2023/12/21 02:14:58;;;;;;;2.80;1.92;;;7.60;99.90;;;;;;5021262;28;20048;-53
2023/12/21 02:17:25;;;;;;;4.10;2.22;;;7.60;99.90;;;;;;5038502;28;20183;-54
2023/12/21 02:19:52;;;;;;;11.07;2.10;;;7.60;99.90;;;;;;5022720;28;20513;-55
2023/12/21 02:22:19;;;;;;;3.10;2.30;;;7.60;99.90;;;;;;5037236;28;20029;-55
2023/12/21 02:24:45;;;;;;;3.83;2.30;;;7.60;99.90;;;;;;5041408;28;20025;-55
2023/12/21 02:27:10;;;;;;;2.15;1.90;;;7.70;99.90;;;;;;5037811;28;20026;-55
2023/12/21 02:29:36;;;;;;;2.33;2.00;;;7.70;99.90;;;;;;5040722;28;20442;-55
2023/12/21 02:32:02;;;;;;;2.90;1.90;;;7.60;99.90;;;;;;5021389;28;20033;-55
2023/12/21 02:34:27;;;;;;;4.43;2.50;;;7.60;99.90;;;;;;5039678;28;20029;-55
2023/12/21 02:36:53;;;;;;;5.03;2.20;;;7.60;99.90;;;;;;5040474;28;20028;-55
2023/12/21 02:39:18;;;;;;;3.90;2.20;;;7.70;99.90;;;;;;5038183;28;20169;-55
2023/12/21 02:41:46;;;;;;;2.97;2.28;;;7.70;99.90;;;;;;5041356;28;20429;-55
2023/12/21 02:44:12;;;;;;;3.47;1.70;;;7.60;99.90;;;;;;5038223;28;20027;-55
2023/12/21 02:46:38;;;;;;;2.13;1.80;;;7.70;99.90;;;;;;5019692;28;20029;-55
2023/12/21 02:49:03;;;;;;;2.08;1.88;;;7.70;99.90;;;;;;5038105;28;20082;-55
2023/12/21 02:51:29;;;;;;;2.97;2.20;;;7.70;99.90;;;;;;5039720;28;20287;-55
2023/12/21 02:53:54;;;;;;;3.33;1.95;;;7.70;99.90;;;;;;5040521;28;20024;-55
2023/12/21 02:56:20;;;;;;;2.88;2.20;;;7.70;99.90;;;;;;5038255;28;20025;-55
2023/12/21 02:58:46;;;;;;;2.58;1.83;;;7.70;99.90;;;;;;5041495;28;20067;-55
2023/12/21 03:01:11;;;;;;;2.78;2.22;;;7.70;99.90;;;;;;5038644;28;20075;-55
2023/12/21 03:03:37;;;;;;;4.00;2.83;;;7.70;99.90;;;;;;5020179;28;20553;-55
2023/12/21 03:06:03;;;;;;;3.38;2.92;;;7.70;99.90;;;;;;5037553;28;20365;-55
2023/12/21 03:08:29;;;;;;;3.83;3.20;;;7.70;99.90;;;;;;5040146;28;20036;-55
2023/12/21 03:10:54;;;;;;;4.78;3.42;;;7.80;99.90;;;;;;5023392;28;20021;-55
2023/12/21 03:13:20;;;;;;;4.40;3.72;;;7.70;99.90;;;;;;5020287;28;20033;-55
2023/12/21 03:15:45;;;;;;;5.32;4.05;;;7.70;99.90;;;;;;5036925;28;20029;-54
2023/12/21 03:18:12;;;;;;;6.50;4.30;;;7.70;99.90;;;;;;5038855;28;20474;-55
2023/12/21 03:20:38;;;;;;;5.97;4.10;;;7.70;99.90;;;;;;5041164;28;20033;-54
2023/12/21 03:23:04;;;;;;;6.05;4.15;;;7.70;99.90;;;;;;5039898;28;20036;-55
2023/12/21 03:25:30;;;;;;;5.38;4.13;;;7.70;99.90;;;;;;5040107;28;20030;-55
2023/12/21 03:27:56;;;;;;;7.57;4.75;;;7.80;99.90;;;;;;5040973;28;20035;-55
2023/12/21 03:30:22;;;;;;;5.85;4.28;;;7.80;99.90;;;;;;5020483;28;20055;-55
2023/12/21 03:32:48;;;;;;;6.00;4.30;;;7.70;99.90;;;;;;5037851;28;20053;-56
2023/12/21 03:35:15;;;;;;;5.18;3.95;;;7.80;99.90;;;;;;5038567;28;20453;-54
2023/12/21 03:37:40;;;;;;;5.65;3.85;;;7.80;99.90;;;;;;5031590;28;20059;-56
2023/12/21 03:40:07;;;;;;;6.85;4.30;;;7.70;99.90;;;;;;5040447;28;20057;-55
2023/12/21 03:42:32;;;;;;;5.32;3.97;;;7.80;99.90;;;;;;5035435;28;20034;-55
2023/12/21 03:44:58;;;;;;;9.05;4.80;;;7.80;99.90;;;;;;5023190;28;20063;-56
2023/12/21 03:47:24;;;;;;;5.68;3.97;;;7.80;99.90;;;;;;5038858;28;20111;-55
2023/12/21 03:49:49;;;;;;;6.72;4.07;;;7.80;99.90;;;;;;5042136;28;20059;-55
2023/12/21 03:52:15;;;;;;;5.97;4.32;;;7.80;99.90;;;;;;5038748;28;20017;-56
2023/12/21 03:54:41;;;;;;;5.03;3.70;;;7.80;99.90;;;;;;5036447;28;20112;-55
2023/12/21 03:57:07;;;;;;;5.65;3.85;;;7.80;99.90;;;;;;5039513;28;20471;-55
2023/12/21 03:59:34;;;;;;;4.53;3.63;;;7.80;99.90;;;;;;5040874;28;20038;-55
2023/12/21 04:02:00;;;;;;;4.32;3.55;;;7.80;99.90;;;;;;5036020;28;20102;-55
2023/12/21 04:04:25;;;;;;;6.43;3.55;;;7.80;99.90;;;;;;5039985;28;20105;-55
2023/12/21 04:06:51;;;;;;;6.05;4.00;;;7.80;99.90;;;;;;5041069;28;20100;-55
2023/12/21 04:09:17;;;;;;;4.95;3.70;;;7.80;99.90;;;;;;5042195;28;20033;-55
2023/12/21 04:11:42;;;;;;;6.07;4.00;;;7.80;99.90;;;;;;5039915;28;20017;-55
2023/12/21 04:14:08;;;;;;;7.30;4.22;;;7.80;99.90;;;;;;5043385;28;20111;-55
2023/12/21 04:16:33;;;;;;;9.18;4.57;;;7.80;99.90;;;;;;5023504;28;20065;-55
2023/12/21 04:18:59;;;;;;;6.35;4.18;;;7.80;99.90;;;;;;5041805;28;20025;-55
2023/12/21 04:21:24;;;;;;;22.15;5.70;;;7.90;99.90;;;;;;5037805;28;20033;-54
2023/12/21 04:23:50;;;;;;;8.60;5.25;;;7.90;99.90;;;;;;5045773;28;20055;-55
2023/12/21 04:26:21;;;;;;;8.88;5.40;;;7.90;99.90;;;;;;5024636;28;20473;-55
2023/12/21 04:28:49;;;;;;;5.78;3.28;;;7.90;99.90;;;;;;5045729;28;20092;-55
2023/12/21 04:31:19;;;;;;;6.95;4.63;;;7.90;99.90;;;;;;5019653;28;20036;-55
2023/12/21 04:33:46;;;;;;;7.90;5.05;;;7.90;99.90;;;;;;5035735;28;20048;-55
2023/12/21 04:36:12;;;;;;;9.25;5.25;;;7.90;99.90;;;;;;5043362;28;20237;-55
2023/12/21 04:38:38;;;;;;;7.75;5.40;;;7.90;99.90;;;;;;5045168;28;20028;-55
2023/12/21 04:41:04;;;;;;;10.45;6.63;;;7.90;99.90;;;;;;5044701;28;20598;-55
2023/12/21 04:43:29;;;;;;;9.95;5.70;;;7.90;99.90;;;;;;5044113;28;20065;-55
2023/12/21 04:45:55;;;;;;;14.18;7.00;;;7.90;99.90;;;;;;5045432;28;20033;-54
2023/12/21 04:48:20;;;;;;;10.27;6.20;;;7.90;99.90;;;;;;5042688;28;20455;-54
2023/12/21 04:50:46;;;;;;;9.23;6.05;;;7.90;99.90;;;;;;5040701;28;20575;-55
2023/12/21 04:53:12;;;;;;;14.07;6.50;;;7.90;99.90;;;;;;5043837;28;20327;-54
2023/12/21 04:55:37;;;;;;;12.55;6.25;;;7.90;99.90;;;;;;5044949;28;20032;-55
2023/12/21 04:58:03;;;;;;;8.52;5.50;;;7.90;99.90;;;;;;5026808;28;20043;-54
2023/12/21 05:00:29;;;;;;;8.35;5.07;;;7.90;99.90;;;;;;5024115;28;20029;-55
2023/12/21 05:02:55;;;;;;;12.32;5.75;;;8.00;99.90;;;;;;5041796;28;20028;-54
2023/12/21 05:05:21;;;;;;;8.63;4.88;;;8.00;99.90;;;;;;5024795;28;20025;-54
2023/12/21 05:07:47;;;;;;;8.38;5.15;;;7.90;99.90;;;;;;5022456;28;20020;-54
2023/12/21 05:10:13;;;;;;;10.48;5.30;;;8.00;99.90;;;;;;5044001;28;20021;-54
2023/12/21 05:12:39;;;;;;;13.85;5.82;;;8.00;99.90;;;;;;5045374;28;20029;-54
2023/12/21 05:15:05;;;;;;;14.10;5.15;;;8.00;99.90;;;;;;5043904;28;20096;-54
2023/12/21 05:17:30;;;;;;;9.50;5.43;;;8.00;99.90;;;;;;5043979;28;20025;-54
2023/12/21 05:19:56;;;;;;;8.35;5.05;;;8.00;99.90;;;;;;5045624;28;20025;-55
2023/12/21 05:22:22;;;;;;;9.70;5.97;;;8.00;99.90;;;;;;5043538;28;20014;-55
2023/12/21 05:24:47;;;;;;;10.43;5.28;;;8.00;99.90;;;;;;5045783;28;20021;-54
2023/12/21 05:27:13;;;;;;;9.45;5.45;;;8.00;99.90;;;;;;5043583;28;20029;-55
2023/12/21 05:29:41;;;;;;;10.52;5.32;;;8.00;99.90;;;;;;5045571;28;20017;-55
2023/12/21 05:32:07;;;;;;;10.00;5.22;;;8.00;99.90;;;;;;5044980;28;20014;-54
2023/12/21 05:34:33;;;;;;;9.23;5.40;;;8.00;99.90;;;;;;5044768;28;20028;-54
2023/12/21 05:36:59;;;;;;;7.95;4.65;;;8.00;99.90;;;;;;5045250;28;20507;-55
2023/12/21 05:39:25;;;;;;;8.30;5.20;;;8.00;99.90;;;;;;5043938;28;20453;-54
2023/12/21 05:41:51;;;;;;;12.00;5.18;;;8.00;99.90;;;;;;5045881;28;20052;-55
2023/12/21 05:44:16;;;;;;;12.60;6.28;;;8.00;99.90;;;;;;5043839;28;20028;-56
2023/12/21 05:46:42;;;;;;;11.82;6.47;;;8.10;99.90;;;;;;5027545;28;20028;-55
2023/12/21 05:49:11;;;;;;;10.40;6.65;;;8.10;99.90;;;;;;5044961;28;20621;-55
2023/12/21 05:51:37;;;;;;;9.82;5.88;;;8.10;99.90;;;;;;5045217;28;20079;-55
2023/12/21 05:54:03;;;;;;;12.00;6.80;;;8.10;99.90;;;;;;5046017;28;20021;-55
2023/12/21 05:56:35;;;;;;;10.95;6.78;;;8.10;99.90;;;;;;5037250;28;20644;-55
2023/12/21 05:59:00;;;;;;;11.15;6.82;;;8.10;99.90;;;;;;5028067;28;20079;-55
2023/12/21 06:01:26;;;;;;;13.00;6.93;;;8.10;99.90;;;;;;5043922;28;20527;-54
2023/12/21 06:03:52;;;;;;;12.68;7.00;;;8.10;99.90;;;;;;5039002;28;20056;-57
2023/12/21 06:06:17;;;;;;;13.93;7.95;;;8.10;99.90;;;;;;5025513;28;20063;-57
2023/12/21 06:08:43;;;;;;;12.63;7.47;;;8.10;99.90;;;;;;5046189;28;20044;-57
2023/12/21 06:11:08;;;;;;;13.20;7.35;;;8.10;99.90;;;;;;5045225;28;20021;-57
2023/12/21 06:13:35;;;;;;;14.70;7.57;;;8.10;99.90;;;;;;5044634;28;20021;-57
2023/12/21 06:16:00;;;;;;;16.52;7.07;;;8.10;99.90;;;;;;5045226;28;20053;-57
2023/12/21 06:18:26;;;;;;;16.08;7.40;;;8.10;99.90;;;;;;5044294;28;20454;-57
2023/12/21 06:20:52;;;;;;;16.80;7.53;;;8.10;99.90;;;;;;5046065;28;20711;-57
2023/12/21 06:23:18;;;;;;;14.85;8.75;;;8.10;99.90;;;;;;5044444;28;20028;-57
2023/12/21 06:25:44;;;;;;;14.18;7.80;;;8.10;99.90;;;;;;5044980;28;20013;-57
2023/12/21 06:28:09;;;;;;;14.95;8.18;;;8.10;99.90;;;;;;5045485;28;20013;-57
2023/12/21 06:30:35;;;;;;;15.98;8.88;;;8.10;99.90;;;;;;5045146;28;20028;-60
2023/12/21 06:33:01;;;;;;;14.27;7.95;;;8.10;99.90;;;;;;5046347;28;20466;-57
2023/12/21 06:35:27;;;;;;;17.02;8.18;;;8.20;99.90;;;;;;5044064;28;20029;-57
2023/12/21 06:37:52;;;;;;;13.55;7.72;;;8.20;99.90;;;;;;5045783;28;20028;-57
2023/12/21 06:40:18;;;;;;;15.85;7.88;;;8.20;99.90;;;;;;5044706;28;20021;-57
2023/12/21 06:42:43;;;;;;;13.90;8.25;;;8.20;99.90;;;;;;5020865;28;20021;-57
2023/12/21 06:45:11;;;;;;;17.90;9.15;;;8.20;99.90;;;;;;5039072;28;20017;-57
2023/12/21 06:47:37;;;;;;;13.35;7.15;;;8.20;99.90;;;;;;5045122;28;20068;-57
2023/12/21 06:50:03;;;;;;;16.17;8.60;;;8.20;99.90;;;;;;5045416;28;20025;-57
2023/12/21 06:52:30;;;;;;;12.18;7.28;;;8.20;99.90;;;;;;5026169;28;20040;-57
2023/12/21 06:54:56;;;;;;;12.60;7.07;;;8.20;99.90;;;;;;5040343;28;20014;-57
2023/12/21 06:57:22;;;;;;;11.00;6.53;;;8.20;99.90;;;;;;5042728;28;20025;-57
2023/12/21 06:59:47;;;;;;;12.30;7.07;;;8.10;99.90;;;;;;5028196;28;20103;-57
2023/12/21 07:02:13;;;;;;;11.52;5.97;;;8.20;99.90;;;;;;5045602;28;20017;-57
2023/12/21 07:04:38;;;;;;;14.18;7.30;;;8.20;99.90;;;;;;5024640;28;20036;-57
2023/12/21 07:07:05;;;;;;;12.10;6.57;;;8.20;99.90;;;;;;5041580;28;20108;-57
2023/12/21 07:09:30;;;;;;;14.23;6.53;;;8.20;99.90;;;;;;5045300;28;20080;-57
2023/12/21 07:11:56;;;;;;;10.73;5.95;;;8.20;99.90;;;;;;5046446;28;20465;-57
2023/12/21 07:14:22;;;;;;;9.98;5.53;;;8.20;99.90;;;;;;5038578;28;20231;-57
2023/12/21 07:16:47;;;;;;;10.15;5.57;;;8.20;99.90;;;;;;5045900;28;20443;-57
2023/12/21 07:19:13;;;;;;;10.15;5.53;;;8.20;99.90;;;;;;5046271;28;20052;-57
2023/12/21 07:21:38;;;;;;;9.32;5.65;;;8.20;99.90;;;;;;5034845;28;20036;-57
2023/12/21 07:24:04;;;;;;;11.15;5.97;;;8.20;99.90;;;;;;5041812;28;20021;-57
2023/12/21 07:26:30;;;;;;;6.88;4.68;;;8.20;99.90;;;;;;5041258;28;20069;-57
2023/12/21 07:28:56;;;;;;;8.93;4.70;;;8.20;99.90;;;;;;5028358;28;20461;-53
2023/12/21 07:31:21;;;;;;;9.73;4.97;;;8.20;99.90;;;;;;5042885;28;20310;-54
2023/12/21 07:33:47;;;;;;;9.85;4.45;;;8.20;99.90;;;;;;5046203;28;20338;-54
2023/12/21 07:36:14;;;;;;;7.30;3.70;;;8.20;99.90;;;;;;5042919;28;20304;-54
2023/12/21 07:38:40;;;;;;;6.13;3.72;;;8.20;99.90;;;;;;5049215;28;20096;-52
2023/12/21 07:41:10;;;;;;;4.75;3.30;;;8.20;99.90;;;;;;5050431;28;20121;-54
2023/12/21 07:43:37;;;;;;;4.15;2.80;;;8.20;99.90;;;;;;5050206;28;20033;-54
2023/12/21 07:46:03;;;;;;;4.15;2.88;;;8.20;99.90;;;;;;5049914;28;20027;-54
2023/12/21 07:48:28;;;;;;;5.20;3.38;;;8.20;99.90;;;;;;5049602;28;20218;-54
2023/12/21 07:50:54;;;;;;;4.10;2.90;;;8.20;99.90;;;;;;5050485;28;20498;-54
2023/12/21 07:53:19;;;;;;;3.78;2.80;;;8.20;99.90;;;;;;5049923;28;20032;-54
2023/12/21 07:55:45;;;;;;;3.85;2.78;;;8.20;99.90;;;;;;5050214;28;20103;-53
2023/12/21 07:58:11;;;;;;;4.38;2.30;;;8.20;99.90;;;;;;5050771;28;20482;-54
2023/12/21 08:00:36;;;;;;;3.45;2.40;;;8.20;99.90;;;;;;5049811;28;20013;-54
2023/12/21 08:03:02;;;;;;;3.45;2.00;;;8.20;99.90;;;;;;5050255;28;20493;-54
2023/12/21 08:05:28;;;;;;;4.00;2.95;;;8.20;99.90;;;;;;5048640;28;20057;-54
2023/12/21 08:07:53;;;;;;;2.67;1.90;;;8.20;99.90;;;;;;5049406;28;20041;-54
2023/12/21 08:10:19;;;;;;;2.25;1.70;;;8.20;99.90;;;;;;5049226;28;20017;-54
2023/12/21 08:12:46;;;;;;;2.22;1.65;;;8.20;99.90;;;;;;5045944;28;20022;-54
2023/12/21 08:15:12;;;;;;;2.17;1.80;;;8.20;99.90;;;;;;5045778;28;20025;-54
2023/12/21 08:17:40;;;;;;;2.47;1.80;;;8.20;99.90;;;;;;5046209;28;20501;-54
2023/12/21 08:20:06;;;;;;;2.85;1.80;;;8.20;99.90;;;;;;5045582;28;20021;-54
2023/12/21 08:22:33;;;;;;;2.63;1.67;;;8.20;99.90;;;;;;5049523;28;20063;-54
2023/12/21 08:24:58;;;;;;;2.30;1.95;;;8.30;99.90;;;;;;5050026;28;20048;-55
2023/12/21 08:27:25;;;;;;;2.75;1.50;;;8.20;99.90;;;;;;5049003;28;20059;-55
2023/12/21 08:29:51;;;;;;;2.40;1.60;;;8.20;99.90;;;;;;5050433;28;20434;-56
2023/12/21 08:32:18;;;;;;;2.15;1.33;;;8.20;99.90;;;;;;5049859;28;20021;-56
2023/12/21 08:34:44;;;;;;;2.22;1.70;;;8.20;99.90;;;;;;5049987;28;20066;-54
2023/12/21 08:37:10;;;;;;;2.10;1.83;;;8.30;99.90;;;;;;5049617;28;20024;-55
2023/12/21 08:39:35;;;;;;;3.80;1.40;;;8.30;99.90;;;;;;5049858;28;20091;-54
2023/12/21 08:42:02;;;;;;;1.50;1.40;;;8.20;99.90;;;;;;5035756;28;20017;-55
2023/12/21 08:44:28;;;;;;;3.40;1.60;;;8.30;99.90;;;;;;5012076;28;20038;-54
2023/12/21 08:46:54;;;;;;;2.10;1.52;;;8.30;99.90;;;;;;5029824;28;20032;-55
2023/12/21 08:49:19;;;;;;;1.70;1.60;;;8.30;99.90;;;;;;5029541;28;20528;-55
2023/12/21 08:51:45;;;;;;;1.30;1.20;;;8.30;99.90;;;;;;5030282;28;20018;-55
2023/12/21 08:54:11;;;;;;;2.03;1.58;;;8.30;99.90;;;;;;5029913;28;20565;-54
2023/12/21 08:56:45;;;;;;;2.30;1.25;;;8.30;99.90;;;;;;5029271;28;20033;-55
2023/12/21 08:59:11;;;;;;;2.78;1.65;;;8.30;99.90;;;;;;5031883;28;20022;-55
2023/12/21 09:01:37;;;;;;;2.63;1.30;;;8.30;99.90;;;;;;5029987;28;20040;-55
2023/12/21 09:04:04;;;;;;;1.75;1.45;;;8.30;99.90;;;;;;5029730;28;20032;-55
2023/12/21 09:06:31;;;;;;;1.83;1.30;;;8.30;99.90;;;;;;5029332;28;20041;-56
2023/12/21 09:08:57;;;;;;;1.40;1.30;;;8.30;99.90;;;;;;5030523;28;20466;-57
2023/12/21 09:11:23;;;;;;;1.67;1.38;;;8.30;99.90;;;;;;5011489;28;20030;-56
2023/12/21 09:13:48;;;;;;;1.98;1.30;;;8.30;99.90;;;;;;5027331;28;20395;-56
2023/12/21 09:16:17;;;;;;;3.30;1.20;;;8.30;99.90;;;;;;5025364;28;20026;-57
2023/12/21 09:18:46;;;;;;;2.15;1.38;;;8.30;99.90;;;;;;5027281;28;20025;-59
2023/12/21 09:21:12;;;;;;;1.90;1.38;;;8.30;99.90;;;;;;5029292;28;20532;-55
2023/12/21 09:23:39;;;;;;;3.65;1.48;;;8.40;99.90;;;;;;5029258;28;20029;-56
2023/12/21 09:26:08;;;;;;;3.50;1.25;;;8.40;99.90;;;;;;5029488;28;20021;-56
2023/12/21 09:28:35;;;;;;;3.72;1.58;;;8.40;99.90;;;;;;5030303;28;20028;-56
2023/12/21 09:31:00;;;;;;;6.60;1.88;;;8.40;99.90;;;;;;5029032;28;20503;-55
2023/12/21 09:33:26;;;;;;;2.03;1.70;;;8.40;99.90;;;;;;5029585;28;20025;-57
2023/12/21 09:35:54;;;;;;;2.92;1.50;;;8.40;99.90;;;;;;5029438;28;20018;-56
2023/12/21 09:38:20;;;;;;;3.53;1.70;;;8.40;99.90;;;;;;5030640;28;20518;-56
2023/12/21 09:40:46;;;;;;;2.65;1.70;;;8.40;99.90;;;;;;5027175;28;20028;-56
2023/12/21 09:43:17;;;;;;;2.72;1.70;;;8.40;99.90;;;;;;5029826;28;20426;-55
2023/12/21 09:45:45;;;;;;;3.17;2.00;;;8.40;99.90;;;;;;5029021;28;20101;-56
2023/12/21 09:48:14;;;;;;;2.03;1.58;;;8.40;99.90;;;;;;5030163;28;20096;-55
2023/12/21 09:50:44;;;;;;;3.85;1.73;;;8.50;99.90;;;;;;5030939;28;20103;-55
2023/12/21 09:53:14;;;;;;;3.10;2.28;;;8.50;99.90;;;;;;5030191;28;20533;-55
2023/12/21 09:55:43;;;;;;;4.30;1.80;;;8.50;99.90;;;;;;5030580;28;20485;-55
2023/12/21 09:58:11;;;;;;;4.50;1.90;;;8.50;99.90;;;;;;5029080;28;20799;-56
2023/12/21 10:00:37;;;;;;;9.35;6.35;;;8.60;99.90;;;;;;5029315;28;20037;-56
2023/12/21 10:03:04;;;;;;;7.93;4.80;;;8.50;99.90;;;;;;5012231;28;20021;-56
2023/12/21 10:05:30;;;;;;;1.73;1.50;;;8.50;99.90;;;;;;5030646;28;20024;-55
2023/12/21 10:07:56;;;;;;;3.53;1.67;;;8.50;99.90;;;;;;5029353;28;20021;-55
2023/12/21 10:10:22;;;;;;;2.63;1.88;;;8.60;99.90;;;;;;5027555;28;20104;-55
2023/12/21 10:12:47;;;;;;;2.70;1.77;;;8.50;99.90;;;;;;5027786;28;20100;-55
2023/12/21 10:15:13;;;;;;;2.40;1.70;;;8.50;99.90;;;;;;5027483;28;20017;-55
2023/12/21 10:17:39;;;;;;;2.78;1.65;;;8.50;99.90;;;;;;5026998;28;20028;-55
2023/12/21 10:20:06;;;;;;;3.85;1.70;;;8.50;99.90;;;;;;5029094;28;20025;-55
2023/12/21 10:22:32;;;;;;;3.85;2.03;;;8.50;99.90;;;;;;5029583;28;20041;-56
2023/12/21 10:24:59;;;;;;;2.20;1.55;;;8.60;99.90;;;;;;5027552;28;20014;-56
2023/12/21 10:27:26;;;;;;;5.35;2.00;;;8.60;99.90;;;;;;5027300;28;20045;-55
2023/12/21 10:29:53;;;;;;;3.55;1.73;;;8.70;99.90;;;;;;5027692;28;20017;-56
2023/12/21 10:32:19;;;;;;;3.78;1.50;;;8.70;99.90;;;;;;5028215;28;20048;-59
2023/12/21 10:34:46;;;;;;;2.03;1.60;;;8.70;99.90;;;;;;5011704;28;20057;-56
2023/12/21 10:37:13;;;;;;;2.38;1.30;;;8.70;99.90;;;;;;5010443;28;20056;-57
2023/12/21 10:39:39;;;;;;;2.55;2.10;;;8.60;99.90;;;;;;5024515;28;20031;-57
2023/12/21 10:42:05;;;;;;;3.08;1.58;;;8.60;99.90;;;;;;5027297;28;20076;-56
2023/12/21 10:44:30;;;;;;;4.88;1.92;;;8.60;99.90;;;;;;5026720;28;20124;-56
2023/12/21 10:46:56;;;;;;;2.20;1.63;;;8.60;99.90;;;;;;5026506;28;20053;-55
2023/12/21 10:49:23;;;;;;;3.10;1.90;;;8.60;99.90;;;;;;5024979;28;20075;-55
2023/12/21 10:51:49;;;;;;;5.13;2.15;;;8.60;99.90;;;;;;5029852;28;20442;-55
2023/12/21 10:54:20;;;;;;;2.95;1.75;;;8.60;99.90;;;;;;5012086;28;20031;-55
2023/12/21 10:56:46;;;;;;;3.55;2.17;;;8.60;99.90;;;;;;5011942;28;20025;-55
2023/12/21 10:59:13;;;;;;;6.43;1.73;;;8.70;99.90;;;;;;5031054;28;20010;-55
2023/12/21 11:01:40;;;;;;;3.72;1.55;;;8.70;99.90;;;;;;5032113;28;20023;-55
2023/12/21 11:04:06;;;;;;;3.05;1.77;;;8.70;99.90;;;;;;5030290;28;20026;-55
2023/12/21 11:06:33;;;;;;;2.05;1.30;;;8.70;99.90;;;;;;5030195;28;20029;-56
2023/12/21 11:09:00;;;;;;;4.32;1.48;;;8.70;99.90;;;;;;5028705;28;20026;-56
2023/12/21 11:11:27;;;;;;;3.35;2.30;;;8.70;99.90;;;;;;5032491;28;20116;-56
2023/12/21 11:13:55;;;;;;;2.25;1.30;;;8.80;99.90;;;;;;5032467;28;20546;-56
2023/12/21 11:16:25;;;;;;;1.55;1.45;;;8.80;99.90;;;;;;5033850;28;20151;-55
2023/12/21 11:18:53;;;;;;;3.00;2.10;;;8.80;99.90;;;;;;5032517;28;20018;-55
2023/12/21 11:21:20;;;;;;;5.85;2.05;;;8.80;99.90;;;;;;5034944;28;20136;-55
2023/12/21 11:23:46;;;;;;;1.70;1.48;;;8.80;99.90;;;;;;5031509;28;20040;-55
2023/12/21 11:26:20;;;;;;;3.72;1.80;;;8.80;99.90;;;;;;5033882;28;20030;-55
2023/12/21 11:28:46;;;;;;;3.25;1.60;;;8.80;99.90;;;;;;5031774;28;20089;-56
2023/12/21 11:31:15;;;;;;;2.17;1.58;;;8.80;99.90;;;;;;5034571;28;20106;-56
2023/12/21 11:33:41;;;;;;;4.82;1.60;;;8.80;99.90;;;;;;5016445;28;20032;-56
2023/12/21 11:36:08;;;;;;;2.15;1.48;;;8.90;99.90;;;;;;5034716;28;20029;-55
2023/12/21 11:38:48;;;;;;;2.63;1.50;;;8.90;99.90;;;;;;5034275;28;20122;-56
2023/12/21 11:41:14;;;;;;;2.80;1.48;;;8.90;99.90;;;;;;5035452;28;20017;-55
2023/12/21 11:43:41;;;;;;;2.55;1.63;;;8.80;99.90;;;;;;5034246;28;20037;-55
2023/12/21 11:46:10;;;;;;;2.50;1.77;;;8.80;99.90;;;;;;5033030;28;20022;-54
2023/12/21 11:48:37;;;;;;;1.98;1.55;;;8.80;99.90;;;;;;5036474;28;20104;-54
2023/12/21 11:51:04;;;;;;;2.28;1.98;;;8.90;99.90;;;;;;5035295;28;20017;-55
2023/12/21 11:53:29;;;;;;;2.75;1.73;;;8.80;99.90;;;;;;5037051;28;20025;-55
2023/12/21 11:55:57;;;;;;;2.40;1.90;;;8.80;99.90;;;;;;5034105;28;20175;-54
2023/12/21 11:58:23;;;;;;;2.70;1.13;;;8.90;99.90;;;;;;5034985;28;20095;-52
2023/12/21 12:00:51;;;;;;;2.65;1.25;;;8.80;99.90;;;;;;5035532;28;20409;-55
2023/12/21 12:03:18;;;;;;;2.50;1.45;;;8.90;99.90;;;;;;5016864;28;20028;-54
2023/12/21 12:05:44;;;;;;;3.05;1.67;;;8.90;99.90;;;;;;5016418;28;20219;-54
2023/12/21 12:08:10;;;;;;;4.57;1.60;;;8.90;99.90;;;;;;5034483;28;20022;-54
2023/12/21 12:10:36;;;;;;;2.55;1.48;;;8.90;99.90;;;;;;5036665;28;20013;-54
2023/12/21 12:13:03;;;;;;;2.50;1.30;;;8.80;99.90;;;;;;5034678;28;20013;-54
2023/12/21 12:15:29;;;;;;;3.05;1.33;;;8.90;99.90;;;;;;5016061;28;20077;-53
2023/12/21 12:17:55;;;;;;;2.63;1.55;;;8.90;99.90;;;;;;5029309;28;20372;-52
2023/12/21 12:20:21;;;;;;;2.03;1.35;;;8.90;99.90;;;;;;5028600;28;20025;-54
2023/12/21 12:22:47;;;;;;;2.20;1.40;;;8.90;99.90;;;;;;5028928;28;20518;-55
2023/12/21 12:25:16;;;;;;;1.17;0.95;;;9.00;99.90;;;;;;5028964;28;20479;-54
2023/12/21 12:27:43;;;;;;;1.92;1.05;;;9.00;99.90;;;;;;5030874;28;20437;-55
2023/12/21 12:30:10;;;;;;;3.92;1.05;;;9.00;99.90;;;;;;5029644;28;20083;-56
2023/12/21 12:32:36;;;;;;;1.60;0.95;;;9.00;99.90;;;;;;5021303;28;20180;-56
2023/12/21 12:35:02;;;;;;;0.60;0.60;;;9.10;99.90;;;;;;5031853;28;20112;-53
2023/12/21 12:37:30;;;;;;;2.05;0.90;;;9.10;99.90;;;;;;5031197;28;20505;-53
2023/12/21 12:39:56;;;;;;;2.03;0.80;;;9.20;99.90;;;;;;5029331;28;20022;-53
2023/12/21 12:42:22;;;;;;;4.18;1.00;;;9.10;99.90;;;;;;5013378;28;20526;-54
2023/12/21 12:44:51;;;;;;;2.65;0.90;;;9.10;99.90;;;;;;5029049;28;20032;-53
2023/12/21 12:47:17;;;;;;;1.20;0.80;;;9.10;99.90;;;;;;5028787;28;20318;-54
2023/12/21 12:49:43;;;;;;;1.92;0.70;;;9.10;99.90;;;;;;5027559;28;20014;-53